Bryan, TX (77801)

8:15 AM CST on February 09, 2016 (GMT -0600)
Woodland Hights | | Change Station
CLOSE
Current Station
Personal Weather Station
Location: Bryan, TX
Elevation: 335 ft
Nearby Weather Stations

Elev 335 ft 30.65 °N, 96.36 °W | Updated 58 seconds ago

Clear
Clear
39.9 °F
Feels Like 40 °F
N
1.0
Wind Variable Wind from NW
Gusts 4.0 mph

Today
High -- | Low -- °F
--% Chance of Precip.
Yesterday
High -- | Low -- °F
Precip. -- in
Pressure 30.36 in
Visibility 10.0 miles
Clouds Clear
Windchill 40 °F
Dew Point 20 °F
Humidity 45%
Rainfall 0.00 in
Snow Depth Not available.
7:11 AM 6:08 PM
New Moon, 1% visible
METAR KCLL 091353Z 29005KT 10SM CLR 03/M08 A3036 RMK AO2 SLP281 T00331078
Pressure 30.36 in
Visibility 10.0 miles
Clouds Clear
Windchill 40 °F
Dew Point 20 °F
Humidity 45%
Rainfall 0.00 in
Snow Depth Not available.
7:11 AM 6:08 PM
New Moon, 1% visible
METAR KCLL 091353Z 29005KT 10SM CLR 03/M08 A3036 RMK AO2 SLP281 T00331078

10-Day Weather Forecast

Almanac

Astronomy

Feb. 09, 2016 Rise Set
Actual Time
Civil Twilight
Nautical Twilight
Astronomical Twilight
Moon
Length of Visible Light
Length of Day
Tomorrow will be .
, % of the Moon is Illuminated

Today's Extremes

State Highs State Lows

Community

WunderPhotos

Upload Photos

1,891,598 photos uploaded!

WunderBlog® & News

Nearby

Air Quality

  Air Quality AQ Index Pollutant
Not available.

Snow Depth

Station Depth Elevation

Earthquake Activity

City Distance Mag. Time & Date
Minimum magnitude displayed is 2.5.

Coastal Water Temperatures

Place Temperature

Stations

Nearby Weather Stations

Station Location Temp. Windchill Dew Point Humidity Wind Precip. Elev Updated Type
                   

Watches & Warnings

There are currently no watches in effect.